Time;durP1;ratioP1;P1;durP2;ratioP2;P2;SDS_P1;SDS_P2;PMS_P1;PMS_P2;Temp;Humidity;BMP_temperature;BMP_pressure;BME280_temperature;BME280_humidity;BME280_pressure;Samples;Min_cycle;Max_cycle;Signal;HPM_P1;HPM_P2
2023/08/09 00:00:16;;;;;;;4.70;1.30;;;12.60;99.90;;;;;;5089952;28;20074;-73
2023/08/09 00:02:42;;;;;;;4.68;1.48;;;12.50;99.90;;;;;;5077698;28;20036;-74
2023/08/09 00:05:08;;;;;;;4.35;1.25;;;12.50;99.90;;;;;;5095822;28;20471;-73
2023/08/09 00:07:33;;;;;;;4.20;1.00;;;12.50;99.90;;;;;;5095478;28;20115;-73
2023/08/09 00:09:59;;;;;;;4.10;1.20;;;12.50;99.90;;;;;;5073752;28;20046;-73
2023/08/09 00:12:24;;;;;;;4.40;1.40;;;12.50;99.90;;;;;;5086932;28;20504;-72
2023/08/09 00:14:50;;;;;;;3.13;1.30;;;12.50;99.90;;;;;;5088641;28;20086;-73
2023/08/09 00:17:16;;;;;;;3.13;1.02;;;12.40;99.90;;;;;;5084052;28;20043;-73
2023/08/09 00:19:41;;;;;;;3.67;1.30;;;12.50;99.90;;;;;;5072340;28;20024;-74
2023/08/09 00:22:08;;;;;;;3.97;1.50;;;12.40;99.90;;;;;;5074182;28;20142;-73
2023/08/09 00:24:34;;;;;;;6.75;1.45;;;12.40;99.90;;;;;;5080679;28;20614;-73
2023/08/09 00:27:00;;;;;;;4.22;1.42;;;12.40;99.90;;;;;;5065172;28;20123;-73
2023/08/09 00:29:26;;;;;;;4.28;1.35;;;12.30;99.90;;;;;;5084252;28;20040;-73
2023/08/09 00:31:52;;;;;;;3.92;1.55;;;12.30;99.90;;;;;;5062333;28;20040;-73
2023/08/09 00:34:17;;;;;;;3.67;1.50;;;12.30;99.90;;;;;;5090115;28;20051;-72
2023/08/09 00:36:43;;;;;;;4.60;1.65;;;12.20;99.90;;;;;;5084111;28;20062;-74
2023/08/09 00:39:08;;;;;;;3.25;1.63;;;12.20;99.90;;;;;;5064535;28;20117;-72
2023/08/09 00:41:34;;;;;;;4.32;1.45;;;12.20;99.90;;;;;;5084520;28;21001;-72
2023/08/09 00:44:01;;;;;;;5.57;1.38;;;12.20;99.90;;;;;;5082026;28;20028;-73
2023/08/09 00:46:27;;;;;;;8.52;2.05;;;12.20;99.90;;;;;;5083780;28;20044;-72
2023/08/09 00:48:53;;;;;;;5.45;1.83;;;12.20;99.90;;;;;;5066267;28;20475;-73
2023/08/09 00:51:19;;;;;;;3.20;1.27;;;12.20;99.90;;;;;;5065324;28;20084;-73
2023/08/09 00:53:47;;;;;;;2.65;1.70;;;12.20;99.90;;;;;;5063816;28;20097;-73
2023/08/09 00:56:12;;;;;;;4.95;1.40;;;12.20;99.90;;;;;;5072437;28;20041;-73
2023/08/09 00:58:38;;;;;;;3.63;1.40;;;12.20;99.90;;;;;;5071457;28;20101;-73
2023/08/09 01:01:03;;;;;;;2.83;1.42;;;12.10;99.90;;;;;;5064148;28;20033;-74
2023/08/09 01:03:29;;;;;;;5.55;1.85;;;12.10;99.90;;;;;;5068554;28;20066;-73
2023/08/09 01:06:20;;;;;;;5.53;1.58;;;12.10;99.90;;;;;;5074218;28;20093;-73
2023/08/09 01:09:11;;;;;;;2.72;1.13;;;12.10;99.90;;;;;;5067042;28;20111;-73
2023/08/09 01:11:53;;;;;;;3.00;1.42;;;12.00;99.90;;;;;;5064999;28;20028;-73
2023/08/09 01:14:20;;;;;;;3.80;1.90;;;12.00;99.90;;;;;;5089143;28;20068;-73
2023/08/09 01:16:46;;;;;;;5.05;1.50;;;12.00;99.90;;;;;;5064441;28;20040;-73
2023/08/09 01:19:34;;;;;;;3.08;1.65;;;12.00;99.90;;;;;;5061825;28;20461;-73
2023/08/09 01:22:15;;;;;;;4.53;1.50;;;12.00;99.90;;;;;;5063098;28;20047;-74
2023/08/09 01:24:42;;;;;;;6.63;1.90;;;11.90;99.90;;;;;;5061808;28;20037;-73
2023/08/09 01:27:08;;;;;;;2.65;1.58;;;12.00;99.90;;;;;;5065178;28;20040;-73
2023/08/09 01:29:35;;;;;;;4.35;1.50;;;12.00;99.90;;;;;;5080105;28;20115;-73
2023/08/09 01:32:00;;;;;;;4.20;1.50;;;11.90;99.90;;;;;;5087349;28;20523;-73
2023/08/09 01:34:26;;;;;;;4.43;1.40;;;11.90;99.90;;;;;;5079584;28;20047;-73
2023/08/09 01:36:52;;;;;;;2.78;1.05;;;11.90;99.90;;;;;;5066870;28;20043;-72
2023/08/09 01:39:22;;;;;;;3.80;2.00;;;11.80;99.90;;;;;;5066014;28;20598;-72
2023/08/09 01:41:48;;;;;;;2.88;1.58;;;11.80;99.90;;;;;;5070247;28;20043;-73
2023/08/09 01:44:15;;;;;;;2.97;1.42;;;11.80;99.90;;;;;;5063540;28;20050;-72
2023/08/09 01:46:41;;;;;;;2.90;1.50;;;11.80;99.90;;;;;;5066427;28;20048;-73
2023/08/09 01:49:12;;;;;;;2.78;1.30;;;11.80;99.90;;;;;;5061514;28;20389;-73
2023/08/09 01:51:38;;;;;;;4.10;1.58;;;11.70;99.90;;;;;;5065524;28;20042;-72
2023/08/09 01:54:04;;;;;;;2.40;1.30;;;11.70;99.90;;;;;;5087398;28;20541;-72
2023/08/09 01:56:30;;;;;;;7.32;1.45;;;11.70;99.90;;;;;;5074104;28;20044;-73
2023/08/09 01:58:56;;;;;;;4.70;1.50;;;11.70;99.90;;;;;;5068143;28;20044;-73
2023/08/09 02:01:23;;;;;;;3.65;1.50;;;11.70;99.90;;;;;;5059628;28;20030;-73
2023/08/09 02:03:49;;;;;;;4.15;1.50;;;11.70;99.90;;;;;;5071360;28;20089;-74
2023/08/09 02:06:15;;;;;;;3.50;1.40;;;11.60;99.90;;;;;;5064439;28;20048;-73
2023/08/09 02:08:42;;;;;;;4.00;1.60;;;11.70;99.90;;;;;;5060603;28;20054;-72
2023/08/09 02:11:07;;;;;;;3.35;1.30;;;11.60;99.90;;;;;;5072927;28;20047;-73
2023/08/09 02:13:33;;;;;;;3.13;1.25;;;11.60;99.90;;;;;;5093300;28;20040;-73
2023/08/09 02:15:58;;;;;;;4.95;1.58;;;11.60;99.90;;;;;;5087671;28;20032;-73
2023/08/09 02:18:24;;;;;;;4.60;1.40;;;11.50;99.90;;;;;;5072373;28;20041;-73
2023/08/09 02:20:49;;;;;;;4.22;1.52;;;11.50;99.90;;;;;;5089942;28;20486;-73
2023/08/09 02:23:15;;;;;;;5.28;1.60;;;11.50;99.90;;;;;;5089794;28;20126;-73
2023/08/09 02:25:40;;;;;;;4.45;1.45;;;11.50;99.90;;;;;;5090756;28;20040;-73
2023/08/09 02:28:06;;;;;;;3.45;1.67;;;11.50;99.90;;;;;;5073119;28;20037;-73
2023/08/09 02:30:31;;;;;;;4.20;1.55;;;11.50;99.90;;;;;;5068950;28;20499;-73
2023/08/09 02:32:57;;;;;;;3.25;1.30;;;11.50;99.90;;;;;;5072647;28;20499;-74
2023/08/09 02:35:22;;;;;;;4.63;1.50;;;11.50;99.90;;;;;;5069127;28;20097;-73
2023/08/09 02:37:49;;;;;;;2.30;1.13;;;11.50;99.90;;;;;;5090020;28;20133;-73
2023/08/09 02:40:14;;;;;;;3.20;1.65;;;11.50;99.90;;;;;;5070334;28;20055;-73
2023/08/09 02:42:40;;;;;;;2.83;1.30;;;11.40;99.90;;;;;;5070660;28;20039;-73
2023/08/09 02:45:06;;;;;;;4.57;1.60;;;11.40;99.90;;;;;;5067528;28;20510;-73
2023/08/09 02:47:31;;;;;;;3.00;1.52;;;11.40;99.90;;;;;;5070510;28;20414;-73
2023/08/09 02:49:57;;;;;;;4.88;1.52;;;11.30;99.90;;;;;;5073494;28;20135;-73
2023/08/09 02:52:22;;;;;;;5.65;1.60;;;11.30;99.90;;;;;;5075771;28;20051;-73
2023/08/09 02:54:48;;;;;;;3.05;1.73;;;11.30;99.90;;;;;;5062175;28;20051;-73
2023/08/09 02:57:14;;;;;;;4.95;1.48;;;11.30;99.90;;;;;;5068689;28;20045;-73
2023/08/09 02:59:40;;;;;;;3.65;1.60;;;11.30;99.90;;;;;;5069840;28;20382;-73
2023/08/09 03:02:06;;;;;;;3.78;1.73;;;11.30;99.90;;;;;;5069438;28;20093;-73
2023/08/09 03:04:32;;;;;;;3.67;1.63;;;11.20;99.90;;;;;;5069591;28;20055;-73
2023/08/09 03:06:58;;;;;;;2.78;1.50;;;11.20;99.90;;;;;;5070421;28;20085;-73
2023/08/09 03:09:23;;;;;;;3.55;1.60;;;11.20;99.90;;;;;;5065332;28;20093;-73
2023/08/09 03:11:49;;;;;;;3.58;1.52;;;11.10;99.90;;;;;;5073438;28;20035;-73
2023/08/09 03:14:14;;;;;;;3.47;1.50;;;11.10;99.90;;;;;;5064447;28;20465;-72
2023/08/09 03:16:41;;;;;;;4.78;1.92;;;11.10;99.90;;;;;;5066522;28;20036;-73
2023/08/09 03:19:07;;;;;;;5.57;1.50;;;11.10;99.90;;;;;;5074516;28;20086;-73
2023/08/09 03:21:33;;;;;;;4.72;1.55;;;11.00;99.90;;;;;;5067819;28;20075;-73
2023/08/09 03:23:59;;;;;;;2.03;1.42;;;11.00;99.90;;;;;;5065816;28;20072;-73
2023/08/09 03:26:26;;;;;;;2.45;1.27;;;11.00;99.90;;;;;;5057896;28;20576;-73
2023/08/09 03:28:52;;;;;;;5.15;1.75;;;11.00;99.90;;;;;;5072462;28;20028;-73
2023/08/09 03:31:18;;;;;;;3.50;1.58;;;11.00;99.90;;;;;;5066906;28;20036;-73
2023/08/09 03:33:44;;;;;;;2.35;1.50;;;11.00;99.90;;;;;;5089585;28;20056;-73
2023/08/09 03:36:09;;;;;;;4.05;1.60;;;11.00;99.90;;;;;;5090799;28;20036;-73
2023/08/09 03:38:35;;;;;;;3.22;1.70;;;11.00;99.90;;;;;;5064630;28;20496;-73
2023/08/09 03:41:01;;;;;;;2.53;1.60;;;10.90;99.90;;;;;;5091239;28;20027;-73
2023/08/09 03:43:26;;;;;;;4.63;1.83;;;10.90;99.90;;;;;;5067991;28;20044;-73
2023/08/09 03:45:52;;;;;;;3.30;1.45;;;10.90;99.90;;;;;;5089006;28;20481;-73
2023/08/09 03:48:17;;;;;;;4.90;2.00;;;10.90;99.90;;;;;;5088721;28;20044;-73
2023/08/09 03:50:43;;;;;;;3.85;1.73;;;10.90;99.90;;;;;;5095329;28;20040;-73
2023/08/09 03:53:09;;;;;;;2.47;1.63;;;10.90;99.90;;;;;;5066788;28;20071;-73
2023/08/09 03:55:35;;;;;;;3.42;1.83;;;10.90;99.90;;;;;;5091417;28;20048;-73
2023/08/09 03:58:00;;;;;;;3.78;1.95;;;10.90;99.90;;;;;;5073510;28;20495;-73
2023/08/09 04:00:27;;;;;;;5.05;1.90;;;10.90;99.90;;;;;;5072550;28;20048;-73
2023/08/09 04:02:52;;;;;;;4.13;1.70;;;10.90;99.90;;;;;;5066847;28;20047;-73
2023/08/09 04:05:19;;;;;;;7.68;1.85;;;10.90;99.90;;;;;;5091782;28;20078;-72
2023/08/09 04:07:45;;;;;;;3.58;1.70;;;10.90;99.90;;;;;;5079022;28;20036;-72
2023/08/09 04:10:12;;;;;;;4.00;1.73;;;10.90;99.90;;;;;;5079109;28;20038;-73
2023/08/09 04:12:38;;;;;;;2.28;1.50;;;10.90;99.90;;;;;;5087102;28;20139;-72
2023/08/09 04:15:04;;;;;;;2.45;1.65;;;10.90;99.90;;;;;;5058515;28;20116;-72
2023/08/09 04:17:31;;;;;;;5.35;2.10;;;10.90;99.90;;;;;;5073199;28;20044;-72
2023/08/09 04:19:57;;;;;;;5.05;2.08;;;10.90;99.90;;;;;;5068801;28;20028;-72
2023/08/09 04:22:23;;;;;;;6.78;2.00;;;10.90;99.90;;;;;;5065741;28;20054;-73
2023/08/09 04:24:50;;;;;;;6.63;1.90;;;10.90;99.90;;;;;;5065098;28;20081;-73
2023/08/09 04:27:16;;;;;;;4.45;1.65;;;10.90;99.90;;;;;;5065261;28;20456;-73
2023/08/09 04:29:41;;;;;;;3.45;1.83;;;10.90;99.90;;;;;;5065064;28;20036;-72
2023/08/09 04:32:07;;;;;;;4.05;2.00;;;10.90;99.90;;;;;;5064624;28;20388;-73
2023/08/09 04:34:33;;;;;;;4.47;1.80;;;10.90;99.90;;;;;;5070920;28;20035;-73
2023/08/09 04:36:59;;;;;;;4.30;2.00;;;10.90;99.90;;;;;;5065416;28;20048;-73
2023/08/09 04:39:24;;;;;;;3.63;1.50;;;11.00;99.90;;;;;;5070392;28;20114;-73
2023/08/09 04:41:50;;;;;;;2.38;1.50;;;10.90;99.90;;;;;;5073322;28;20032;-73
2023/08/09 04:44:17;;;;;;;7.82;1.70;;;11.00;99.90;;;;;;5071789;28;20062;-73
2023/08/09 04:46:42;;;;;;;4.38;1.70;;;11.00;99.90;;;;;;5072320;28;20498;-73
2023/08/09 04:49:08;;;;;;;4.00;1.73;;;11.10;99.90;;;;;;5073579;28;20044;-72
2023/08/09 04:51:33;;;;;;;3.60;1.80;;;11.10;99.90;;;;;;5073779;28;20443;-73
2023/08/09 04:53:59;;;;;;;2.78;1.52;;;11.20;99.90;;;;;;5074045;28;20032;-73
2023/08/09 04:56:25;;;;;;;4.03;1.60;;;11.20;99.90;;;;;;5074985;28;20127;-73
2023/08/09 04:58:50;;;;;;;4.15;2.15;;;11.30;99.90;;;;;;5091181;28;20093;-73
2023/08/09 05:01:16;;;;;;;6.47;1.35;;;11.40;99.90;;;;;;5092914;28;20036;-73
2023/08/09 05:03:41;;;;;;;3.42;1.63;;;11.40;99.90;;;;;;5073522;28;20494;-73
2023/08/09 05:06:08;;;;;;;5.65;1.83;;;11.50;99.90;;;;;;5073398;28;20411;-73
2023/08/09 05:08:34;;;;;;;2.83;1.48;;;11.60;99.90;;;;;;5074016;28;20085;-73
2023/08/09 05:10:59;;;;;;;3.90;1.63;;;11.60;99.90;;;;;;5073853;28;20144;-73
2023/08/09 05:13:25;;;;;;;3.67;1.65;;;11.70;99.90;;;;;;5073476;28;20048;-73
2023/08/09 05:15:51;;;;;;;5.97;1.70;;;11.70;99.90;;;;;;5073076;28;20044;-73
2023/08/09 05:18:17;;;;;;;3.70;1.40;;;11.80;99.90;;;;;;5073302;28;20032;-73
2023/08/09 05:20:42;;;;;;;2.47;1.30;;;11.90;99.90;;;;;;5073792;28;20462;-73
2023/08/09 05:23:08;;;;;;;4.13;1.50;;;12.00;99.90;;;;;;5073437;28;20032;-73
2023/08/09 05:25:33;;;;;;;4.13;1.70;;;12.10;99.90;;;;;;5068178;28;20322;-72
2023/08/09 05:27:59;;;;;;;3.25;1.35;;;12.10;99.90;;;;;;5056691;28;20040;-73
2023/08/09 05:30:24;;;;;;;3.83;1.35;;;12.20;99.90;;;;;;5073287;28;20522;-73
2023/08/09 05:32:50;;;;;;;3.92;1.30;;;12.30;99.90;;;;;;5072746;28;20558;-74
2023/08/09 05:35:15;;;;;;;1.90;1.30;;;12.40;99.90;;;;;;5075660;28;20466;-73
2023/08/09 05:37:41;;;;;;;4.25;1.10;;;12.50;99.90;;;;;;5073250;28;20461;-73
2023/08/09 05:40:09;;;;;;;5.13;1.40;;;12.60;99.90;;;;;;5074096;28;20407;-73
2023/08/09 05:42:35;;;;;;;2.35;1.27;;;12.70;99.90;;;;;;5088227;28;20032;-73
2023/08/09 05:45:01;;;;;;;3.80;1.35;;;12.70;99.90;;;;;;5071987;28;20039;-73
2023/08/09 05:47:26;;;;;;;4.85;1.42;;;12.90;99.90;;;;;;5069908;28;20046;-72
2023/08/09 05:49:52;;;;;;;2.38;1.40;;;12.90;99.90;;;;;;5072557;28;20564;-73
2023/08/09 05:52:17;;;;;;;3.72;1.77;;;13.00;99.90;;;;;;5089713;28;20123;-73
2023/08/09 05:54:43;;;;;;;3.90;1.50;;;13.10;99.90;;;;;;5072058;28;20039;-73
2023/08/09 05:57:08;;;;;;;6.40;1.50;;;13.20;99.90;;;;;;5071436;28;20396;-72
2023/08/09 05:59:34;;;;;;;2.75;1.30;;;13.30;99.90;;;;;;5072458;28;20299;-72
2023/08/09 06:02:01;;;;;;;4.38;1.50;;;13.40;99.90;;;;;;5089649;28;20032;-73
2023/08/09 06:04:26;;;;;;;4.28;1.52;;;13.50;99.90;;;;;;5072331;28;20043;-73
2023/08/09 06:06:52;;;;;;;4.38;1.48;;;13.60;99.90;;;;;;5090481;28;20036;-73
2023/08/09 06:09:17;;;;;;;2.33;1.45;;;13.70;99.90;;;;;;5091266;28;20126;-72
2023/08/09 06:11:43;;;;;;;3.20;1.50;;;13.80;99.90;;;;;;5091280;28;20173;-72
2023/08/09 06:14:08;;;;;;;3.60;1.42;;;13.90;99.90;;;;;;5090818;28;20043;-73
2023/08/09 06:16:34;;;;;;;4.38;1.88;;;14.00;99.90;;;;;;5090804;28;20039;-73
2023/08/09 06:19:00;;;;;;;3.13;1.42;;;14.10;99.90;;;;;;5091051;28;20040;-73
2023/08/09 06:21:26;;;;;;;4.05;1.48;;;14.20;99.90;;;;;;5073023;28;20033;-73
2023/08/09 06:23:51;;;;;;;4.22;1.50;;;14.30;99.90;;;;;;5091051;28;20064;-73
2023/08/09 06:26:17;;;;;;;5.65;1.42;;;14.40;99.90;;;;;;5090616;28;20509;-73
2023/08/09 06:28:42;;;;;;;4.70;1.25;;;14.50;99.90;;;;;;5073309;28;20423;-73
2023/08/09 06:31:08;;;;;;;6.30;1.55;;;14.60;99.90;;;;;;5089185;28;20067;-73
2023/08/09 06:33:40;;;;;;;3.72;1.30;;;14.70;99.90;;;;;;5089331;28;20039;-73
2023/08/09 06:36:06;;;;;;;3.63;1.40;;;14.80;99.90;;;;;;5088785;28;20448;-73
2023/08/09 06:38:32;;;;;;;3.85;1.35;;;14.90;99.90;;;;;;5089123;28;20036;-73
2023/08/09 06:40:57;;;;;;;2.42;1.30;;;15.00;99.90;;;;;;5071668;28;20036;-74
2023/08/09 06:43:23;;;;;;;4.03;1.05;;;15.10;99.90;;;;;;5069585;28;20046;-73
2023/08/09 06:45:48;;;;;;;4.57;1.33;;;15.20;99.90;;;;;;5070363;28;20374;-73
2023/08/09 06:48:14;;;;;;;3.17;1.40;;;15.30;99.90;;;;;;5081549;28;20055;-73
2023/08/09 06:50:40;;;;;;;3.55;1.30;;;15.40;99.90;;;;;;5072518;28;20044;-72
2023/08/09 06:53:05;;;;;;;7.07;1.20;;;15.50;99.90;;;;;;5072780;28;20036;-73
2023/08/09 06:55:32;;;;;;;4.03;1.50;;;15.70;99.90;;;;;;5072426;28;20048;-73
2023/08/09 06:57:57;;;;;;;6.50;1.65;;;15.80;99.90;;;;;;5072327;28;20567;-72
2023/08/09 07:00:23;;;;;;;2.95;1.10;;;15.90;99.90;;;;;;5091006;28;20040;-73
2023/08/09 07:02:50;;;;;;;1.60;1.10;;;16.00;99.90;;;;;;5072903;28;20068;-72
2023/08/09 07:05:18;;;;;;;2.63;1.20;;;16.10;99.90;;;;;;5070688;28;20111;-75
2023/08/09 07:07:51;;;;;;;4.28;1.13;;;16.20;99.90;;;;;;5071951;28;20044;-72
2023/08/09 07:10:17;;;;;;;4.25;1.40;;;16.30;99.90;;;;;;5086781;28;20067;-72
2023/08/09 07:12:43;;;;;;;5.32;1.05;;;16.40;99.90;;;;;;5072067;28;20040;-73
2023/08/09 07:15:10;;;;;;;3.63;1.30;;;16.50;99.90;;;;;;5075397;28;20044;-73
2023/08/09 07:17:36;;;;;;;4.70;1.10;;;16.60;99.90;;;;;;5093888;28;20051;-72
2023/08/09 07:20:07;;;;;;;3.72;1.13;;;16.70;99.90;;;;;;5094057;28;20032;-72
2023/08/09 07:22:33;;;;;;;6.07;1.10;;;16.80;99.90;;;;;;5094079;28;20048;-72
2023/08/09 07:24:59;;;;;;;4.07;1.38;;;17.00;99.90;;;;;;5059183;28;20513;-72
2023/08/09 07:27:25;;;;;;;5.55;1.20;;;17.00;99.90;;;;;;5093962;28;20039;-73
2023/08/09 07:29:50;;;;;;;3.55;1.25;;;17.20;99.90;;;;;;5075683;28;20040;-72
2023/08/09 07:32:16;;;;;;;2.85;1.00;;;17.20;99.90;;;;;;5059028;28;20043;-73
2023/08/09 07:34:41;;;;;;;4.28;1.00;;;17.30;99.90;;;;;;5075731;28;20043;-72
2023/08/09 07:37:07;;;;;;;5.13;1.10;;;17.40;99.90;;;;;;5067399;28;20117;-72
2023/08/09 07:39:34;;;;;;;4.32;1.35;;;17.50;99.90;;;;;;5093716;28;20036;-72
2023/08/09 07:42:00;;;;;;;1.65;0.98;;;17.60;99.90;;;;;;5075497;28;20047;-73
2023/08/09 07:44:25;;;;;;;5.32;1.30;;;17.70;99.90;;;;;;5093798;28;20411;-73
2023/08/09 07:46:51;;;;;;;5.25;1.40;;;17.70;99.90;;;;;;5092955;28;20054;-72
2023/08/09 07:49:17;;;;;;;4.82;0.90;;;17.80;99.90;;;;;;5075665;28;20048;-73
2023/08/09 07:51:42;;;;;;;3.28;1.10;;;17.80;99.90;;;;;;5075670;28;20134;-72
2023/08/09 07:54:07;;;;;;;3.00;1.00;;;17.90;99.90;;;;;;5093210;28;20053;-72
2023/08/09 07:56:34;;;;;;;3.47;1.15;;;18.00;99.90;;;;;;5093184;28;20063;-72
2023/08/09 07:58:59;;;;;;;3.50;0.70;;;18.20;99.90;;;;;;5093214;28;20632;-73
2023/08/09 08:01:25;;;;;;;3.08;1.08;;;18.20;99.90;;;;;;5073318;28;20118;-73
2023/08/09 08:03:51;;;;;;;3.25;1.00;;;18.30;99.90;;;;;;5087686;28;20035;-73
2023/08/09 08:06:17;;;;;;;3.85;1.20;;;18.40;99.90;;;;;;5093177;28;20410;-73
2023/08/09 08:08:45;;;;;;;3.15;0.95;;;18.30;99.90;;;;;;5074114;28;20071;-74
2023/08/09 08:11:11;;;;;;;5.28;1.00;;;18.20;99.90;;;;;;5091848;28;20036;-73
2023/08/09 08:13:37;;;;;;;3.28;1.00;;;18.20;99.90;;;;;;5073453;28;20736;-73
2023/08/09 08:16:04;;;;;;;3.40;1.10;;;18.40;99.90;;;;;;5073909;28;20074;-72
2023/08/09 08:18:30;;;;;;;6.60;1.05;;;18.50;99.90;;;;;;5075803;28;20040;-73
2023/08/09 08:20:57;;;;;;;5.63;1.10;;;18.60;99.90;;;;;;5088914;28;20503;-74
2023/08/09 08:23:23;;;;;;;3.53;1.27;;;18.70;99.90;;;;;;5092116;28;20122;-73
2023/08/09 08:25:49;;;;;;;3.88;1.20;;;18.70;99.90;;;;;;5091672;28;20471;-74
2023/08/09 08:28:15;;;;;;;4.13;1.15;;;18.80;99.90;;;;;;5072399;28;20122;-72
2023/08/09 08:30:40;;;;;;;4.35;1.10;;;18.70;99.90;;;;;;5090867;28;20497;-72
2023/08/09 08:33:08;;;;;;;5.95;1.20;;;18.70;99.90;;;;;;5092605;28;20120;-73
2023/08/09 08:35:36;;;;;;;3.80;1.10;;;18.80;99.90;;;;;;5093076;28;20570;-73
2023/08/09 08:38:02;;;;;;;3.38;0.85;;;19.10;99.90;;;;;;5073833;28;20036;-72
2023/08/09 08:40:31;;;;;;;3.55;1.00;;;19.20;99.90;;;;;;5075219;28;20039;-73
2023/08/09 08:42:58;;;;;;;3.50;0.90;;;19.30;99.90;;;;;;5074214;28;20039;-73
2023/08/09 08:45:23;;;;;;;3.08;0.80;;;19.40;99.90;;;;;;5074367;28;20036;-73
2023/08/09 08:47:50;;;;;;;6.18;1.30;;;19.20;99.90;;;;;;5073741;28;20042;-73
2023/08/09 08:50:17;;;;;;;2.67;0.95;;;19.00;99.90;;;;;;5075185;28;20131;-73
2023/08/09 08:52:46;;;;;;;2.78;0.80;;;18.70;99.90;;;;;;5066086;28;20047;-74
2023/08/09 08:55:12;;;;;;;1.80;0.80;;;18.40;99.90;;;;;;5071927;28;20071;-74
2023/08/09 08:57:42;;;;;;;3.15;1.00;;;18.20;99.90;;;;;;5071140;28;20040;-74
2023/08/09 09:00:15;;;;;;;2.97;0.95;;;18.10;99.90;;;;;;5063536;28;20693;-73
2023/08/09 09:02:44;;;;;;;2.38;0.82;;;18.30;99.90;;;;;;5071063;28;20491;-73
2023/08/09 09:05:13;;;;;;;1.33;0.80;;;18.70;99.90;;;;;;5071372;28;20109;-74
2023/08/09 09:07:42;;;;;;;4.95;1.08;;;18.70;99.90;;;;;;5072522;28;20089;-73
2023/08/09 09:10:12;;;;;;;1.75;0.90;;;18.70;99.90;;;;;;5071600;28;20063;-73
2023/08/09 09:12:41;;;;;;;2.05;0.90;;;18.50;99.90;;;;;;5069679;28;20040;-74
2023/08/09 09:15:08;;;;;;;2.45;0.90;;;18.60;99.90;;;;;;5071745;28;20039;-74
2023/08/09 09:17:44;;;;;;;3.92;1.08;;;18.80;99.90;;;;;;5071405;28;20449;-73
2023/08/09 09:20:23;;;;;;;1.75;0.80;;;19.00;99.90;;;;;;5069434;28;20043;-74
2023/08/09 09:22:49;;;;;;;2.75;0.75;;;19.20;99.90;;;;;;5070961;28;20031;-75
2023/08/09 09:25:17;;;;;;;4.20;0.93;;;19.20;99.90;;;;;;5089438;28;20271;-75
2023/08/09 09:27:46;;;;;;;2.88;0.90;;;19.10;99.90;;;;;;5065795;28;20047;-74
2023/08/09 09:30:12;;;;;;;2.67;0.80;;;19.20;99.90;;;;;;5070480;28;20044;-73
2023/08/09 09:32:42;;;;;;;1.73;0.80;;;19.40;99.90;;;;;;5089990;28;20070;-73
2023/08/09 09:35:08;;;;;;;2.13;0.90;;;19.30;99.90;;;;;;5086276;28;20040;-73
2023/08/09 09:37:35;;;;;;;2.33;1.00;;;19.20;99.90;;;;;;5071245;28;20040;-72
2023/08/09 09:40:01;;;;;;;3.58;0.82;;;19.00;99.90;;;;;;5070601;28;20047;-72
2023/08/09 09:42:31;;;;;;;4.05;0.98;;;18.90;99.90;;;;;;5085282;28;20040;-73
2023/08/09 09:45:04;;;;;;;2.25;0.80;;;18.90;99.90;;;;;;5065751;28;20036;-73
2023/08/09 09:47:32;;;;;;;3.55;1.33;;;19.10;99.90;;;;;;5057517;28;20532;-72
2023/08/09 09:49:58;;;;;;;3.15;0.90;;;19.40;99.90;;;;;;5071285;28;20047;-74
2023/08/09 09:52:24;;;;;;;3.63;1.08;;;19.60;99.90;;;;;;5064655;28;20051;-74
2023/08/09 09:54:51;;;;;;;2.08;0.90;;;19.80;99.90;;;;;;5072856;28;20051;-74
2023/08/09 09:57:17;;;;;;;1.50;0.80;;;20.00;99.90;;;;;;5073233;28;20036;-74
2023/08/09 09:59:42;;;;;;;2.40;0.80;;;20.00;99.90;;;;;;5073407;28;20044;-73
2023/08/09 10:02:09;;;;;;;3.47;1.10;;;20.20;99.90;;;;;;5072814;28;20044;-73
2023/08/09 10:04:36;;;;;;;2.85;0.88;;;20.40;99.90;;;;;;5073455;28;20032;-74
2023/08/09 10:07:02;;;;;;;2.20;0.90;;;20.40;99.90;;;;;;5066019;28;20046;-74
2023/08/09 10:09:29;;;;;;;3.28;1.20;;;20.10;99.90;;;;;;5073252;28;20040;-74
2023/08/09 10:11:56;;;;;;;2.20;1.00;;;20.10;99.90;;;;;;5056548;28;20400;-74
2023/08/09 10:14:26;;;;;;;1.58;0.85;;;20.30;99.90;;;;;;5065629;28;20077;-73
2023/08/09 10:16:52;;;;;;;2.63;0.80;;;20.30;99.90;;;;;;5067179;28;20085;-73
2023/08/09 10:19:22;;;;;;;2.90;0.95;;;20.30;99.90;;;;;;5073459;28;20040;-74
2023/08/09 10:21:50;;;;;;;2.95;1.00;;;20.50;99.90;;;;;;5073019;28;20044;-73
2023/08/09 10:24:18;;;;;;;2.17;0.90;;;20.50;99.90;;;;;;5072380;28;20433;-72
2023/08/09 10:26:49;;;;;;;2.60;0.80;;;20.40;99.90;;;;;;5073170;28;20459;-72
2023/08/09 10:29:20;;;;;;;1.73;1.00;;;20.20;99.90;;;;;;5070867;28;20032;-73
2023/08/09 10:31:48;;;;;;;2.88;0.90;;;20.00;99.90;;;;;;5056609;28;20139;-74
2023/08/09 10:34:40;;;;;;;1.40;0.80;;;20.00;99.90;;;;;;5072735;28;20036;-73
2023/08/09 10:37:06;;;;;;;3.22;0.80;;;20.20;99.90;;;;;;5063821;28;20047;-73
2023/08/09 10:39:34;;;;;;;2.30;0.90;;;20.10;99.90;;;;;;5072953;28;20410;-72
2023/08/09 10:42:07;;;;;;;4.55;0.90;;;19.90;99.90;;;;;;5072659;28;20059;-73
2023/08/09 10:44:45;;;;;;;2.80;1.00;;;19.70;99.90;;;;;;5072348;28;20040;-73
2023/08/09 10:47:14;;;;;;;2.60;0.90;;;19.50;99.90;;;;;;5066277;28;20036;-73
2023/08/09 10:49:49;;;;;;;2.08;0.85;;;19.20;99.90;;;;;;5068024;28;20127;-73
2023/08/09 10:52:35;;;;;;;3.03;1.10;;;19.10;99.90;;;;;;5074209;28;20060;-73
2023/08/09 10:55:20;;;;;;;1.70;0.95;;;19.40;99.90;;;;;;5071851;28;20056;-73
2023/08/09 10:57:48;;;;;;;;;;;19.90;99.90;;;;;;5068177;28;20159;-73
2023/08/09 11:00:14;;;;;;;2.90;1.00;;;20.10;99.90;;;;;;5073477;28;19962;-73
2023/08/09 11:02:56;;;;;;;2.17;0.85;;;20.10;99.90;;;;;;5074109;28;20082;-73
2023/08/09 11:05:23;;;;;;;2.40;1.10;;;20.20;99.90;;;;;;5074093;28;20395;-74
2023/08/09 11:07:53;;;;;;;2.17;0.93;;;20.60;99.90;;;;;;5057378;28;20081;-74
2023/08/09 11:10:35;;;;;;;2.70;1.05;;;21.00;99.90;;;;;;5068248;28;20044;-73
2023/08/09 11:13:06;;;;;;;1.63;0.90;;;21.30;99.90;;;;;;5075896;28;20397;-74
2023/08/09 11:15:32;;;;;;;2.35;0.95;;;21.10;99.90;;;;;;5080871;28;20032;-72
2023/08/09 11:17:58;;;;;;;3.70;1.10;;;21.20;99.90;;;;;;5069429;28;20044;-74
2023/08/09 11:20:23;;;;;;;1.98;0.80;;;21.30;99.90;;;;;;5077660;28;20038;-74
2023/08/09 11:22:57;;;;;;;3.08;1.10;;;21.20;99.90;;;;;;5071551;28;20028;-73
2023/08/09 11:25:24;;;;;;;2.72;1.00;;;21.40;99.90;;;;;;5084841;28;20066;-73
2023/08/09 11:27:53;;;;;;;4.32;1.00;;;21.70;99.90;;;;;;5068650;28;20051;-74
2023/08/09 11:30:20;;;;;;;2.67;1.00;;;22.00;99.90;;;;;;5067227;28;20028;-74
2023/08/09 11:32:54;;;;;;;3.67;1.05;;;22.00;99.90;;;;;;5065271;28;20031;-75
2023/08/09 11:35:25;;;;;;;5.53;1.10;;;22.30;99.90;;;;;;5082455;28;20044;-73
2023/08/09 11:37:52;;;;;;;2.83;0.82;;;22.60;99.90;;;;;;5073085;28;20043;-76
2023/08/09 11:40:20;;;;;;;4.25;0.90;;;22.60;99.90;;;;;;5074980;28;20044;-75
2023/08/09 11:42:45;;;;;;;3.63;0.80;;;22.80;99.90;;;;;;5073481;28;20089;-74
2023/08/09 11:45:11;;;;;;;3.53;0.70;;;22.90;99.90;;;;;;5072899;28;20039;-76
2023/08/09 11:47:36;;;;;;;2.13;0.75;;;22.90;99.90;;;;;;5074864;28;20449;-74
2023/08/09 11:50:18;;;;;;;2.95;0.80;;;23.10;99.90;;;;;;5092840;28;20032;-74
2023/08/09 11:52:44;;;;;;;2.65;1.08;;;23.30;99.90;;;;;;5093296;28;20036;-74
2023/08/09 11:55:10;;;;;;;2.38;0.90;;;23.50;99.90;;;;;;5074843;28;20067;-75
2023/08/09 11:57:36;;;;;;;3.47;0.90;;;23.20;99.90;;;;;;5091934;28;20115;-75
2023/08/09 12:00:02;;;;;;;2.53;1.02;;;22.90;99.90;;;;;;5092616;28;20036;-74
2023/08/09 12:02:27;;;;;;;2.95;1.00;;;22.90;99.90;;;;;;5074756;28;20047;-75
2023/08/09 12:04:53;;;;;;;3.03;1.02;;;23.00;99.90;;;;;;5074406;28;20833;-75
2023/08/09 12:07:21;;;;;;;2.70;0.88;;;22.90;99.90;;;;;;5074888;28;20507;-74
2023/08/09 12:09:46;;;;;;;2.22;1.10;;;22.70;99.90;;;;;;5073861;28;20073;-75
2023/08/09 12:12:35;;;;;;;2.97;1.17;;;22.50;99.90;;;;;;5090040;28;20044;-74
2023/08/09 12:15:01;;;;;;;2.97;1.50;;;22.00;99.90;;;;;;5068936;28;20532;-74
2023/08/09 12:17:28;;;;;;;3.25;0.98;;;22.10;99.90;;;;;;5090313;28;20119;-74
2023/08/09 12:19:56;;;;;;;3.28;0.80;;;21.80;99.90;;;;;;5090009;28;20047;-74
2023/08/09 12:22:22;;;;;;;2.05;0.95;;;21.60;99.90;;;;;;5074680;28;20046;-76
2023/08/09 12:24:48;;;;;;;2.90;0.90;;;21.40;99.90;;;;;;5073475;28;20039;-74
2023/08/09 12:27:14;;;;;;;6.15;1.30;;;21.20;99.90;;;;;;5073372;28;20036;-74
2023/08/09 12:29:40;;;;;;;3.47;1.10;;;20.80;99.90;;;;;;5073045;28;20089;-77
2023/08/09 12:32:06;;;;;;;2.20;0.90;;;20.60;99.90;;;;;;5073574;28;20059;-74
2023/08/09 12:34:32;;;;;;;1.95;1.10;;;20.20;99.90;;;;;;5072290;28;20043;-76
2023/08/09 12:36:58;;;;;;;3.65;1.10;;;20.10;99.90;;;;;;5071637;28;20441;-75
2023/08/09 12:39:24;;;;;;;2.95;1.35;;;20.00;99.90;;;;;;5074524;28;20036;-74
2023/08/09 12:41:50;;;;;;;4.10;1.10;;;20.10;99.90;;;;;;5090874;28;20093;-74
2023/08/09 12:44:15;;;;;;;3.97;1.20;;;20.60;99.90;;;;;;5065846;28;20111;-73
2023/08/09 12:46:41;;;;;;;7.25;1.25;;;21.00;99.90;;;;;;5090438;28;20132;-74